Fayetteville, Illinois
Current Conditions -  °F | °C
As of 9:58 PM on Thursday 18 Dec 2014 (Local Time) from KBLV Reporting Station
Overcast Overcast  
Wind Chill: 33°   Ceiling: 2900
Heat Index: 33°   Visibility: 10mi
Dew Point: 28°   Wind: 2mph
Humidity: 81%   Direction: 40°NE
Pressure: 30.29"   Gusts: NA
Location:  38.459°N, 89.7628°W
Report Text: KBLV 190358Z AUTO 04002KT 10SM OVC029 00/M02 A3029 RMK AO2 SLPNO T00041025
Loading
Personal Weather Stations






























Interactive Weather Map New forecast layout! Learn more

10-Day Weather Forecast

Advertisements
Track Severe Weather on mobile